Latest Coastal Weather Observations for Cape Jaffa

IDS60701

Issued at 9:11 pm CST Sunday 29 May 2016 (issued every 10 minutes, with the page automatically refreshed every 10 minutes)

About coastal observations | Map of coastal stations | Coastal observations for SA | Marine services | Other Formats
Station Details ID: 026095 Name: THE LIMESTONE Lat: -36.97 Lon: 139.72 Height: 17.0 m
Data from the previous 72 hours. | See also: Recent months at Cape Jaffa
Date/Time
CST
Temp

°C
Wind Pressure Rain
since 9am
mm
Weather Cloud Vis
km
Sea
Height
m
Swell
Dir
 
Speed
knots
Gust
knots
hPa Trend Height
m
Period
s
Dir
29/09:00pm 6.2 E 9 11 1020.4 - 0.0 - - - - - - -
29/08:30pm 6.4 E 9 10 1020.5 - 0.0 - - - - - - -
29/08:00pm 6.6 E 8 10 1020.5 - 0.0 - - - - - - -
29/07:30pm 6.9 E 9 10 1020.3 - 0.0 - - - - - - -
29/07:00pm 7.3 E 9 10 1020.1 - 0.0 - - - - - - -
29/06:30pm 7.8 E 8 10 1019.9 - 0.0 - - - - - - -
29/06:00pm 8.3 E 7 8 1019.7 - 0.0 - - - - - - -
29/05:30pm 8.9 E 6 7 1019.5 - 0.0 - - - - - - -
29/05:00pm 9.6 E 6 6 1019.3 - 0.0 - - - - - - -
29/04:30pm 11.3 ENE 6 7 1019.1 - 0.0 - - - - - - -
29/04:00pm 12.2 NE 6 7 1019.1 - 0.0 - - - - - - -
29/03:30pm 12.3 NNE 8 10 1019.2 - 0.0 - - - - - - -
29/03:00pm 12.5 NNE 9 12 1019.2 - 0.0 - - - - - - -
29/02:30pm 12.7 NNE 10 13 1019.4 - 0.0 - - - - - - -
29/02:00pm 12.9 NNE 10 13 1019.4 - 0.0 - - - - - - -
29/01:30pm 12.6 NNE 11 15 1019.5 - 0.0 - - - - - - -
29/01:00pm 12.7 NNE 10 14 1019.6 - 0.0 - - - - - - -
29/12:30pm 13.1 NE 10 13 1019.9 - 0.0 - - - - - - -
29/12:00pm 12.1 NE 11 14 1020.3 - 0.0 - - - - - - -
29/11:30am 12.2 NE 11 13 1020.5 - 0.0 - - - - - - -
29/11:00am 11.8 ENE 12 14 1020.7 - 0.0 - - - - - - -
29/10:30am 11.2 ENE 13 16 1020.8 - 0.0 - - - - - - -
29/10:00am 10.9 ENE 13 15 1020.9 - 0.0 - - - - - - -
29/09:30am 10.6 ENE 12 16 1021.1 - 0.0 - - - - - - -
29/09:00am 9.9 ENE 10 13 1021.0 - 0.0 - - - - - - -
29/08:30am 8.5 ENE 9 11 1020.8 - 0.0 - - - - - - -
29/08:00am 7.5 ENE 9 10 1020.4 - 0.0 - - - - - - -
29/07:30am 7.0 E 8 10 1020.3 - 0.0 - - - - - - -
29/07:00am 7.2 E 9 11 1020.0 - 0.0 - - - - - - -
29/06:30am 7.7 NE 5 6 1020.0 - 0.0 - - - - - - -
29/06:00am 7.9 NE 6 7 1019.8 - 0.0 - - - - - - -
29/05:30am 7.9 NE 5 6 1019.5 - 0.0 - - - - - - -
29/05:00am 8.1 NE 4 4 1019.3 - 0.0 - - - - - - -
29/04:30am 8.4 NE 5 5 1019.2 - 0.0 - - - - - - -
29/04:00am 8.3 NNE 3 4 1019.1 - 0.0 - - - - - - -
29/03:30am 8.6 NE 5 5 1019.1 - 0.0 - - - - - - -
29/03:00am 8.8 NE 3 4 1019.1 - 0.0 - - - - - - -
29/02:30am 9.2 ENE 4 5 1019.2 - 0.0 - - - - - - -
29/02:00am 9.2 NE 2 2 1019.2 - 0.0 - - - - - - -
29/01:30am 9.4 ENE 2 3 1019.3 - 0.0 - - - - - - -
29/01:00am 9.4 NE 3 4 1019.3 - 0.0 - - - - - - -
29/12:30am 9.6 ENE 2 3 1019.3 - 0.0 - - - - - - -
29/12:00am 9.6 ENE 3 4 1019.5 - 0.0 - - - - - - -
 
Date/Time
CST
Temp

°C
Wind Pressure Rain
since 9am
mm
Weather Cloud Vis
km
Sea
Height
m
Swell
Dir
 
Speed
knots
Gust
knots
hPa Trend Height
m
Period
s
Dir
28/11:30pm 9.8 NNE 2 3 1019.6 - 0.0 - - - - - - -
28/11:00pm 10.4 E 3 3 1019.5 - 0.0 - - - - - - -
28/10:30pm 10.6 ESE 3 4 1019.5 - 0.0 - - - - - - -
28/10:00pm 10.8 ESE 3 4 1019.4 - 0.0 - - - - - - -
28/09:30pm 10.6 E 2 2 1019.5 - 0.0 - - - - - - -
28/09:00pm 10.7 E 2 3 1019.3 - 0.0 - - - - - - -
28/08:30pm 10.5 ESE 1 1 1019.1 - 0.0 - - - - - - -
28/08:00pm 10.6 SE 1 2 1019.1 - 0.0 - - - - - - -
28/07:30pm 10.8 ESE 3 4 1019.0 - 0.0 - - - - - - -
28/07:00pm 11.1 SE 4 5 1018.7 - 0.0 - - - - - - -
28/06:30pm 11.3 SSE 5 7 1018.5 - 0.0 - - - - - - -
28/06:00pm 11.2 S 4 7 1018.3 - 0.0 - - - - - - -
28/05:30pm 11.7 SW 7 9 1018.1 - 0.0 - - - - - - -
28/05:00pm 11.5 SSE 5 7 1017.8 - 0.0 - - - - - - -
28/04:30pm 11.9 S 8 11 1017.7 - 0.0 - - - - - - -
28/04:00pm 12.6 SSW 7 11 1017.4 - 0.0 - - - - - - -
28/03:30pm 12.9 SSW 9 13 1017.2 - 0.0 - - - - - - -
28/03:00pm 13.8 SSW 13 16 1016.9 - 0.0 - - - - - - -
28/02:30pm 12.9 SSW 10 13 1016.7 - 0.0 - - - - - - -
28/02:00pm 13.6 S 12 15 1016.5 - 0.0 - - - - - - -
28/01:30pm 13.9 S 11 15 1016.3 - 0.0 - - - - - - -
28/01:00pm 13.8 S 14 17 1016.3 - 0.0 - - - - - - -
28/12:30pm 13.6 S 14 17 1016.2 - 0.0 - - - - - - -
28/12:00pm 13.5 SSE 6 8 1016.5 - 0.0 - - - - - - -
28/11:30am 13.3 SSE 6 10 1016.7 - 0.0 - - - - - - -
28/11:00am 13.7 S 7 10 1016.7 - 0.0 - - - - - - -
28/10:30am 14.1 S 12 14 1016.5 - 0.0 - - - - - - -
28/10:00am 13.0 SSE 5 8 1016.4 - 0.0 - - - - - - -
28/09:30am 11.6 SSE 5 7 1016.1 - 0.0 - - - - - - -
28/09:00am 11.1 SSE 3 5 1015.7 - 12.0 - - - - - - -
28/08:30am 10.7 SSE 8 11 1015.4 - 12.0 - - - - - - -
28/08:00am 10.1 SE 6 8 1014.9 - 12.0 - - - - - - -
28/07:30am 9.9 SE 5 8 1014.7 - 12.0 - - - - - - -
28/07:00am 9.5 SSE 5 6 1014.4 - 12.0 - - - - - - -
28/06:30am 8.9 SSE 5 7 1013.8 - 12.0 - - - - - - -
28/06:00am 8.9 SSE 8 9 1013.1 - 12.0 Recent precip. - - - - - -
28/05:30am 8.5 SSE 8 9 1012.5 - 12.0 - - - - - - -
28/05:00am 8.4 SSE 7 8 1012.0 - 11.8 - - - - - - -
28/04:30am 8.7 SSE 7 9 1011.7 - 11.8 - - - - - - -
28/04:00am 8.6 SSE 6 7 1011.4 - 11.8 - - - - - - -
28/03:30am 8.9 SSE 7 9 1011.1 - 11.8 - - - - - - -
28/03:00am 9.3 S 9 11 1011.0 - 11.8 - - - - - - -
28/02:30am 8.7 SSE 9 11 1010.5 - 11.8 - - - - - - -
28/02:00am 8.3 SSE 9 11 1010.0 - 11.8 - - - - - - -
28/01:30am 8.4 SSE 8 11 1009.6 - 11.8 - - - - - - -
28/01:00am 8.5 SE 6 8 1009.1 - 11.8 - - - - - - -
28/12:30am 8.8 SE 8 14 1008.8 - 11.8 - - - - - - -
28/12:00am 8.5 SE 6 8 1008.2 - 11.8 - - - - - - -
 
Date/Time
CST
Temp

°C
Wind Pressure Rain
since 9am
mm
Weather Cloud Vis
km
Sea
Height
m
Swell
Dir
 
Speed
knots
Gust
knots
hPa Trend Height
m
Period
s
Dir
27/11:30pm 9.4 ESE 4 5 1007.5 - 11.8 - - - - - - -
27/11:00pm 8.7 E 5 5 1006.9 - 11.8 - - - - - - -
27/10:30pm 8.6 E 5 5 1006.6 - 11.8 - - - - - - -
27/10:00pm 9.0 E 5 5 1006.2 - 11.8 - - - - - - -
27/09:30pm 10.0 SSE 2 3 1006.1 - 11.8 - - - - - - -
27/09:00pm 11.5 W 3 5 1005.8 - 11.8 - - - - - - -
27/08:30pm 11.6 W 4 6 1005.7 - 11.8 - - - - - - -
27/08:00pm 11.7 WSW 6 8 1005.4 - 11.8 - - - - - - -
27/07:30pm 11.6 WNW 4 8 1005.3 - 11.8 - - - - - - -
27/07:00pm 11.4 NW 6 9 1005.0 - 11.8 - - - - - - -
27/06:30pm 11.4 NW 8 10 1004.7 - 11.8 - - - - - - -
27/06:00pm 11.3 WNW 7 10 1004.5 - 11.8 - - - - - - -
27/05:30pm 11.5 WNW 7 9 1004.2 - 11.8 - - - - - - -
27/05:00pm 11.4 NW 7 9 1004.0 - 11.8 - - - - - - -
27/04:30pm 11.3 NNW 7 9 1004.0 - 11.8 - - - - - - -
27/04:00pm 11.2 NW 10 13 1003.7 - 10.2 - - - - - - -
27/03:30pm 11.4 WNW 12 17 1003.7 - 9.2 - - - - - - -
27/03:00pm 13.4 WSW 13 18 1003.3 - 8.8 - - - - - - -
27/02:30pm 13.4 W 14 19 1002.9 - 8.8 - - - - - - -
27/02:00pm 14.3 W 11 14 1002.9 - 8.8 - - - - - - -
27/01:30pm 14.1 W 13 16 1003.0 - 8.8 - - - - - - -
27/01:00pm 14.8 W 15 19 1003.4 - 8.8 - - - - - - -
27/12:30pm 14.9 W 12 16 1003.4 - 8.8 - - - - - - -
27/12:00pm 14.6 W 12 15 1003.4 - 8.8 Recent precip. - - - - - -
27/11:30am 13.3 W 9 13 1003.8 - 8.8 - - - - - - -
27/11:00am 12.0 NNE 8 16 1004.2 - 8.0 - - - - - - -
27/10:30am 11.3 NE 7 9 1004.5 - 7.6 - - - - - - -
27/10:00am 10.7 NNE 5 8 1004.9 - 7.6 - - - - - - -
27/09:30am 10.5 NE 9 15 1005.6 - 3.2 - - - - - - -
27/09:00am 10.9 NE 14 19 1005.1 - 3.4 Rain - - - - - -
27/08:30am 11.6 NNE 13 17 1005.5 - 2.6 - - - - - - -
27/08:00am 11.3 NNE 15 21 1005.8 - 2.6 - - - - - - -
27/07:43am 11.8 NNE 15 23 1005.9 - 2.2 - - - - - - -
27/07:30am 11.1 NE 9 12 1006.3 - 0.8 - - - - - - -
27/07:00am 10.1 ENE 9 11 1006.2 - 0.0 - - - - - - -
27/06:30am 9.3 ENE 10 12 1006.3 - 0.0 - - - - - - -
27/06:00am 8.4 E 7 9 1006.7 - 0.0 - - - - - - -
27/05:30am 8.1 ENE 7 8 1007.1 - 0.0 - - - - - - -
27/05:00am 7.2 E 7 8 1007.3 - 0.0 - - - - - - -
27/04:30am 6.9 E 6 7 1007.7 - 0.0 - - - - - - -
27/04:00am 6.9 E 6 7 1007.8 - 0.0 - - - - - - -
27/03:30am 7.0 ENE 5 6 1008.0 - 0.0 - - - - - - -
27/03:00am 7.1 ENE 5 5 1008.3 - 0.0 - - - - - - -
27/02:30am 7.8 CALM 0 2 1008.6 - 0.0 - - - - - - -
27/02:00am 8.4 CALM 0 0 1008.8 - 0.0 - - - - - - -
27/01:30am 8.9 CALM 0 0 1008.9 - 0.0 - - - - - - -
27/01:00am 9.3 CALM 0 2 1009.1 - 0.0 - - - - - - -
27/12:30am 10.0 CALM 0 0 1009.4 - 0.0 - - - - - - -
27/12:00am 10.1 CALM 0 1 1009.6 - 0.0 - - - - - - -
 
Date/Time
CST
Temp

°C
Wind Pressure Rain
since 9am
mm
Weather Cloud Vis
km
Sea
Height
m
Swell
Dir
 
Speed
knots
Gust
knots
hPa Trend Height
m
Period
s
Dir
26/11:30pm 11.0 WSW 4 5 1009.6 - 0.0 - - - - - - -
26/11:00pm 11.3 SW 5 7 1009.7 - 0.0 - - - - - - -
26/10:30pm 11.5 SW 5 6 1009.8 - 0.0 - - - - - - -
26/10:00pm 11.8 SW 6 7 1010.2 - 0.0 - - - - - - -
26/09:30pm 11.2 SW 6 8 1010.2 - 0.0 - - - - - - -

Other Formats:

Comma delimited format used in spreadsheet applications
http://www.bom.gov.au/fwo/IDS60701/IDS60701.94813.axf

JavaScript Object Notation format (JSON) in row-major order
http://www.bom.gov.au/fwo/IDS60701/IDS60701.94813.json